Time;durP1;ratioP1;P1;durP2;ratioP2;P2;SDS_P1;SDS_P2;PMS_P1;PMS_P2;Temp;Humidity;BMP_temperature;BMP_pressure;BME280_temperature;BME280_humidity;BME280_pressure;Samples;Min_cycle;Max_cycle;Signal;HPM_P1;HPM_P2
2023/01/24 00:02:54;;;;;;;2.90;2.45;;;;;;;19.16;48.82;98413.72;10601696;28;20042;-55
2023/01/24 00:08:15;;;;;;;2.97;2.63;;;;;;;19.14;48.95;98424.81;10587954;28;20047;-55
2023/01/24 00:13:35;;;;;;;3.30;2.58;;;;;;;19.13;48.99;98417.81;10572389;28;20052;-54
2023/01/24 00:18:55;;;;;;;3.10;2.60;;;;;;;19.11;48.96;98425.41;10586953;28;20113;-55
2023/01/24 00:24:14;;;;;;;2.80;2.47;;;;;;;19.11;48.98;98421.88;10587185;28;20055;-55
2023/01/24 00:29:33;;;;;;;2.97;2.67;;;;;;;19.09;48.76;98424.88;10586971;28;20051;-55
2023/01/24 00:34:53;;;;;;;3.33;2.72;;;;;;;19.08;48.91;98417.03;10586901;28;20097;-55
2023/01/24 00:40:13;;;;;;;3.78;2.60;;;;;;;19.06;48.87;98422.72;10607847;27;20035;-55
2023/01/24 00:45:35;;;;;;;2.72;2.47;;;;;;;19.05;49.08;98415.72;10627881;27;20444;-55
2023/01/24 00:50:54;;;;;;;2.80;2.60;;;;;;;19.04;48.86;98426.78;10628126;27;20051;-55
2023/01/24 00:56:14;;;;;;;3.25;2.95;;;;;;;19.03;48.99;98433.28;10628432;27;20411;-55
2023/01/24 01:01:33;;;;;;;2.42;2.22;;;;;;;19.01;48.98;98430.03;10628419;27;20396;-55
2023/01/24 01:06:53;;;;;;;3.10;2.70;;;;;;;18.99;48.93;98440.31;10628191;27;20043;-55
2023/01/24 01:12:12;;;;;;;4.15;2.70;;;;;;;18.98;48.95;98434.13;10628084;27;20058;-55
2023/01/24 01:17:33;;;;;;;2.83;2.47;;;;;;;18.98;48.95;98436.03;10627075;27;20047;-55
2023/01/24 01:22:52;;;;;;;3.13;2.50;;;;;;;18.95;48.81;98434.66;10641123;27;20547;-55
2023/01/24 01:28:11;;;;;;;2.92;2.60;;;;;;;18.94;48.85;98441.97;10626849;27;20047;-55
2023/01/24 01:33:31;;;;;;;2.40;2.20;;;;;;;18.94;48.78;98439.28;10625260;27;20143;-55
2023/01/24 01:38:50;;;;;;;2.72;2.42;;;;;;;18.92;48.76;98446.06;10627041;27;20047;-55
2023/01/24 01:44:40;;;;;;;2.90;2.42;;;;;;;18.91;48.87;98441.72;10626047;27;20058;-54
2023/01/24 01:50:05;;;;;;;2.83;2.38;;;;;;;18.89;48.74;98460.09;10626419;27;20058;-56
2023/01/24 01:55:30;;;;;;;2.50;2.30;;;;;;;18.88;49.04;98445.00;10610042;27;20491;-55
2023/01/24 02:00:50;;;;;;;2.47;2.28;;;;;;;18.87;48.81;98443.38;10626072;27;20051;-55
2023/01/24 02:06:22;;;;;;;2.70;2.30;;;;;;;18.84;48.91;98457.44;10610147;27;20048;-55
2023/01/24 02:11:43;;;;;;;2.65;2.38;;;;;;;18.84;48.70;98457.44;10610268;27;20055;-55
2023/01/24 02:17:03;;;;;;;2.92;2.15;;;;;;;18.81;48.72;98447.19;10625514;27;20415;-56
2023/01/24 02:22:29;;;;;;;2.80;2.42;;;;;;;18.81;48.76;98447.19;10624548;27;20555;-55
2023/01/24 02:27:48;;;;;;;2.60;2.25;;;;;;;18.78;48.70;98449.34;10625011;27;20406;-55
2023/01/24 02:33:15;;;;;;;2.70;2.25;;;;;;;18.77;48.60;98441.50;10609324;27;20051;-55
2023/01/24 02:38:34;;;;;;;3.00;2.45;;;;;;;18.76;48.75;98446.09;10624749;27;20055;-55
2023/01/24 02:43:56;;;;;;;2.85;2.30;;;;;;;18.74;48.75;98431.28;10624478;27;20081;-55
2023/01/24 02:49:16;;;;;;;2.45;2.25;;;;;;;18.72;48.62;98434.25;10608264;27;20063;-55
2023/01/24 02:54:35;;;;;;;3.10;2.63;;;;;;;18.70;48.74;98428.31;10624307;27;20465;-55
2023/01/24 02:59:54;;;;;;;2.45;2.25;;;;;;;18.69;48.77;98434.78;10624299;27;20051;-55
2023/01/24 03:05:14;;;;;;;2.40;2.10;;;;;;;18.69;48.62;98421.28;10608409;28;20047;-55
2023/01/24 03:10:35;;;;;;;2.65;2.33;;;;;;;18.66;48.74;98419.16;10622356;27;20255;-55
2023/01/24 03:44:11;;;;;;;3.47;2.22;;;;;;;18.60;48.74;98444.56;10622037;27;20073;-55
2023/01/24 03:55:10;;;;;;;3.13;2.30;;;;;;;18.56;48.59;98447.03;10636567;27;20388;-55
2023/01/24 04:00:30;;;;;;;2.25;1.95;;;;;;;18.54;48.66;98443.78;10635141;27;20043;-54
2023/01/24 04:05:53;;;;;;;2.22;2.03;;;;;;;18.54;48.63;98445.66;10621555;27;20054;-55
2023/01/24 04:11:14;;;;;;;2.70;2.03;;;;;;;18.52;48.70;98445.13;10620841;27;20134;-55
2023/01/24 04:16:33;;;;;;;2.53;2.33;;;;;;;18.52;48.63;98450.53;10621094;27;20043;-55
2023/01/24 04:22:16;;;;;;;2.10;1.90;;;;;;;18.50;48.57;98447.31;10613578;27;20055;-55
2023/01/24 04:27:36;;;;;;;2.30;2.00;;;;;;;18.48;48.49;98444.09;10629061;27;20569;-55
2023/01/24 04:33:03;;;;;;;3.22;2.30;;;;;;;18.46;48.61;98438.94;10614174;27;20406;-55
2023/01/24 04:38:22;;;;;;;2.38;2.17;;;;;;;18.46;48.51;98438.16;10629400;27;20058;-55
2023/01/24 04:43:54;;;;;;;2.70;2.15;;;;;;;18.44;48.53;98437.63;10613026;27;20051;-55
2023/01/24 04:49:14;;;;;;;2.50;2.22;;;;;;;18.42;48.56;98434.41;10628066;27;20059;-55
2023/01/24 04:54:38;;;;;;;2.42;2.22;;;;;;;18.42;48.67;98434.41;10613398;27;20066;-55
2023/01/24 04:59:58;;;;;;;2.63;2.05;;;;;;;18.40;48.48;98437.38;10612417;27;20533;-55
2023/01/24 05:05:18;;;;;;;3.35;2.28;;;;;;;18.38;48.63;98434.97;10628221;27;20051;-55
2023/01/24 05:10:37;;;;;;;2.67;2.33;;;;;;;18.38;48.65;98437.66;10612752;27;20059;-55
2023/01/24 05:15:56;;;;;;;2.17;1.98;;;;;;;18.37;48.62;98433.34;10634510;27;20039;-55
2023/01/24 05:21:18;;;;;;;2.60;2.20;;;;;;;18.36;48.63;98447.09;10609756;27;20051;-54
2023/01/24 05:26:38;;;;;;;2.55;2.35;;;;;;;18.37;48.65;98448.72;10603997;27;20051;-55
2023/01/24 05:31:58;;;;;;;2.22;2.00;;;;;;;18.36;49.25;98447.91;10589448;27;20125;-55
2023/01/24 05:37:17;;;;;;;2.45;2.25;;;;;;;18.38;48.78;98461.94;10620069;27;20094;-55
2023/01/24 05:42:40;;;;;;;3.45;2.78;;;;;;;18.38;48.86;98456.56;10588612;27;20039;-54
2023/01/24 05:48:00;;;;;;;2.88;2.58;;;;;;;18.38;48.68;98461.94;10571712;28;20408;-55
2023/01/24 05:53:20;;;;;;;3.38;3.00;;;;;;;18.40;48.75;98458.94;10615926;27;20365;-55
2023/01/24 05:58:42;;;;;;;3.25;2.95;;;;;;;18.41;48.70;98476.78;10596595;27;20103;-54
2023/01/24 06:04:04;;;;;;;4.03;3.00;;;;;;;18.42;48.88;98486.47;10587193;27;20059;-55
2023/01/24 06:09:23;;;;;;;4.13;3.10;;;;;;;18.43;48.74;98481.91;10596764;27;20048;-56
2023/01/24 06:14:43;;;;;;;6.95;4.03;;;;;;;18.43;48.86;98498.09;10567527;28;20051;-56
2023/01/24 06:20:03;;;;;;;4.10;3.33;;;;;;;18.43;48.92;98495.41;10581929;28;20112;-52
2023/01/24 06:25:25;;;;;;;3.58;2.97;;;;;;;18.45;48.91;98504.03;10617905;27;20104;-55
2023/01/24 06:31:03;;;;;;;5.25;3.55;;;;;;;18.46;48.89;98501.03;10597633;27;20059;-54
2023/01/24 06:36:29;;;;;;;15.73;4.78;;;;;;;18.47;48.92;98513.44;10582401;28;20051;-55
2023/01/24 06:41:49;;;;;;;15.50;5.55;;;;;;;18.49;48.97;98516.69;10581521;28;20453;-55
2023/01/24 06:47:10;;;;;;;15.90;5.72;;;;;;;18.51;48.88;98519.91;10581187;28;20066;-55
2023/01/24 06:52:30;;;;;;;18.30;6.35;;;;;;;18.52;48.91;98526.94;10595528;28;20040;-55
2023/01/24 06:57:56;;;;;;;11.32;5.22;;;;;;;18.54;48.93;98530.16;10581030;28;20126;-55
2023/01/24 07:03:16;;;;;;;16.33;6.05;;;;;;;18.58;48.94;98538.50;10581678;28;20075;-55
2023/01/24 07:08:35;;;;;;;14.23;5.78;;;;;;;18.62;48.73;98542.28;10581385;28;20070;-55
2023/01/24 07:13:54;;;;;;;13.70;5.95;;;;;;;18.64;48.76;98547.38;10581335;28;20055;-55
2023/01/24 07:19:16;;;;;;;13.55;5.25;;;;;;;18.66;48.80;98543.34;10594805;28;20044;-56
2023/01/24 07:24:36;;;;;;;13.13;5.97;;;;;;;18.69;48.95;98547.38;10580953;28;20263;-55
2023/01/24 07:29:55;;;;;;;11.00;5.75;;;;;;;18.71;48.81;98546.00;10580746;28;20058;-55
2023/01/24 07:35:14;;;;;;;11.32;5.25;;;;;;;18.75;48.95;98560.56;10594135;28;20046;-55
2023/01/24 07:40:35;;;;;;;11.93;5.30;;;;;;;18.79;48.84;98555.44;10580742;28;20052;-55
2023/01/24 07:45:55;;;;;;;11.63;5.53;;;;;;;18.81;48.52;98560.59;10580350;28;20063;-55
2023/01/24 07:51:15;;;;;;;11.32;5.30;;;;;;;18.87;48.84;98567.59;10580456;28;20055;-56
2023/01/24 07:56:34;;;;;;;10.52;4.82;;;;;;;18.89;48.68;98568.91;10587383;28;20051;-55
2023/01/24 08:01:53;;;;;;;10.82;5.68;;;;;;;18.94;48.64;98566.22;10587877;28;20507;-56
2023/01/24 08:07:19;;;;;;;11.23;5.72;;;;;;;18.97;48.63;98564.84;10588149;28;20122;-55
2023/01/24 08:12:40;;;;;;;9.70;5.03;;;;;;;19.00;48.66;98572.41;10587661;28;20414;-56
2023/01/24 08:18:02;;;;;;;10.13;4.75;;;;;;;19.04;48.62;98581.56;10601095;28;20043;-56
2023/01/24 08:23:22;;;;;;;8.77;4.68;;;;;;;19.08;48.59;98577.22;10587302;28;20085;-56
2023/01/24 08:28:41;;;;;;;8.50;4.97;;;;;;;19.11;48.77;98578.53;10587123;28;20441;-55
2023/01/24 08:34:00;;;;;;;9.18;4.70;;;;;;;19.15;48.46;98591.25;10587177;28;20052;-55
2023/01/24 08:39:20;;;;;;;6.97;4.50;;;;;;;19.19;48.80;98580.69;10587000;28;20055;-56
2023/01/24 08:44:39;;;;;;;8.75;4.47;;;;;;;19.23;48.69;98591.72;10585828;28;20515;-55
2023/01/24 08:49:59;;;;;;;8.30;4.60;;;;;;;19.26;48.84;98594.69;10586098;28;20047;-56
2023/01/24 08:55:18;;;;;;;8.30;4.40;;;;;;;19.29;48.72;98586.03;10585375;28;20052;-55
2023/01/24 09:00:37;;;;;;;7.22;4.30;;;;;;;19.33;48.53;98594.38;10586039;28;20054;-55
2023/01/24 09:05:57;;;;;;;8.18;4.38;;;;;;;19.36;48.49;98593.81;10598704;28;20044;-55
2023/01/24 09:11:16;;;;;;;11.18;5.40;;;;;;;19.38;49.17;98594.34;10585515;28;20078;-56
2023/01/24 09:16:36;;;;;;;9.23;4.68;;;;;;;19.42;49.33;98591.91;10585268;28;20058;-55
2023/01/24 09:21:56;;;;;;;11.82;4.72;;;;;;;19.43;49.63;98604.34;10584653;28;20071;-55
2023/01/24 09:27:16;;;;;;;8.73;4.95;;;;;;;19.45;49.71;98604.88;10598557;28;20118;-56
2023/01/24 09:32:36;;;;;;;10.88;4.72;;;;;;;19.45;49.63;98605.66;10583900;28;20465;-55
2023/01/24 09:37:56;;;;;;;9.23;4.30;;;;;;;19.45;49.63;98605.66;10569182;28;20055;-55
2023/01/24 09:43:39;;;;;;;7.25;4.20;;;;;;;19.48;49.67;98602.41;10583366;28;20055;-57
2023/01/24 09:49:09;;;;;;;6.20;4.10;;;;;;;19.48;49.25;98599.72;10580979;28;20056;-58
2023/01/24 09:54:38;;;;;;;8.82;4.40;;;;;;;19.49;49.28;98598.59;10581925;28;20047;-57
2023/01/24 10:00:04;;;;;;;8.25;4.20;;;;;;;19.51;49.20;98603.75;10582911;28;20495;-57
2023/01/24 10:05:49;;;;;;;6.53;4.13;;;;;;;19.52;49.05;98606.16;10583299;28;20136;-58
2023/01/24 10:11:30;;;;;;;6.53;3.90;;;;;;;19.55;49.03;98597.47;10567736;28;20078;-57
2023/01/24 10:17:05;;;;;;;7.20;4.25;;;;;;;19.56;49.12;98601.81;10581287;28;20109;-57
2023/01/24 10:22:40;;;;;;;6.43;3.90;;;;;;;19.59;48.93;98602.34;10582711;28;20057;-57
2023/01/24 10:28:02;;;;;;;5.97;3.90;;;;;;;19.62;49.06;98594.47;10595761;28;20092;-58
2023/01/24 10:33:21;;;;;;;7.55;4.10;;;;;;;19.63;49.17;98596.09;10580679;28;20051;-57
2023/01/24 10:38:42;;;;;;;6.95;3.83;;;;;;;19.66;48.91;98597.41;10582043;28;20048;-58
2023/01/24 10:44:26;;;;;;;5.70;3.80;;;;;;;19.69;49.04;98591.44;10582149;28;20048;-58
2023/01/24 10:50:10;;;;;;;5.85;3.80;;;;;;;19.72;48.92;98577.41;10581838;28;20063;-57
2023/01/24 10:55:36;;;;;;;6.35;3.60;;;;;;;19.74;49.02;98580.63;10581840;28;20055;-58
2023/01/24 11:00:57;;;;;;;5.68;3.80;;;;;;;19.77;49.33;98576.56;10580830;28;20051;-57
2023/01/24 11:06:27;;;;;;;5.20;3.60;;;;;;;19.79;48.88;98577.06;10581291;28;20055;-57
2023/01/24 11:11:50;;;;;;;5.50;3.67;;;;;;;19.82;49.01;98582.72;10581109;28;20494;-56
2023/01/24 11:17:29;;;;;;;6.28;3.58;;;;;;;19.84;48.74;98575.16;10580691;28;20052;-56
2023/01/24 11:22:51;;;;;;;6.82;3.97;;;;;;;19.87;48.77;98577.28;10581012;28;20059;-55
2023/01/24 11:28:26;;;;;;;6.03;3.85;;;;;;;19.91;48.77;98562.09;10582939;28;20047;-55
2023/01/24 11:34:07;;;;;;;6.22;3.70;;;;;;;19.94;48.57;98566.13;10602979;28;20043;-55
2023/01/24 11:40:04;;;;;;;6.72;4.45;;;;;;;19.89;44.32;98561.56;10588904;28;20075;-55
2023/01/24 11:45:39;;;;;;;5.85;4.78;;;;;;;19.93;46.53;98553.69;10588254;28;20048;-56
2023/01/24 11:51:14;;;;;;;6.75;4.57;;;;;;;19.99;46.65;98557.16;10588578;28;20096;-55
2023/01/24 11:56:48;;;;;;;6.18;4.32;;;;;;;20.03;46.62;98559.03;10572949;28;20055;-56
2023/01/24 12:02:32;;;;;;;8.30;4.57;;;;;;;20.06;46.60;98558.44;10588308;28;20060;-55
2023/01/24 12:08:19;;;;;;;5.45;3.95;;;;;;;20.09;46.69;98554.34;10587398;28;20043;-56
2023/01/24 12:13:47;;;;;;;5.30;4.03;;;;;;;20.12;46.71;98537.56;10587887;28;20047;-55
2023/01/24 12:19:36;;;;;;;5.47;4.10;;;;;;;20.17;46.92;98548.34;10587562;28;20055;-55
2023/01/24 12:25:07;;;;;;;5.38;4.25;;;;;;;20.20;46.69;98536.13;10586704;28;20498;-56
2023/01/24 12:30:40;;;;;;;6.00;3.83;;;;;;;20.22;46.93;98537.47;10585509;28;20036;-56
2023/01/24 12:36:39;;;;;;;4.75;3.92;;;;;;;20.25;46.76;98545.03;10600377;28;20483;-55
2023/01/24 12:42:13;;;;;;;5.22;3.97;;;;;;;20.29;46.91;98546.06;10599405;28;20036;-55
2023/01/24 12:47:48;;;;;;;5.30;3.58;;;;;;;20.30;46.95;98536.81;10570589;28;20101;-55
2023/01/24 12:53:14;;;;;;;4.93;3.78;;;;;;;20.33;46.83;98533.56;10586427;28;20055;-56
2023/01/24 12:58:37;;;;;;;5.47;4.28;;;;;;;20.36;46.85;98529.47;10599670;28;20040;-56
2023/01/24 13:04:00;;;;;;;3.90;3.45;;;;;;;20.39;46.95;98530.81;10586058;28;20121;-56
2023/01/24 13:09:51;;;;;;;4.43;3.95;;;;;;;20.41;46.95;98525.91;10585648;28;20047;-55
2023/01/24 13:15:34;;;;;;;4.00;3.50;;;;;;;20.43;46.75;98529.94;10598999;28;20043;-55
2023/01/24 13:21:18;;;;;;;4.25;3.58;;;;;;;20.45;46.54;98527.75;10584995;28;20051;-55
2023/01/24 13:26:59;;;;;;;4.28;3.55;;;;;;;20.49;46.76;98530.69;10569454;28;20051;-56
2023/01/24 13:32:19;;;;;;;4.18;3.30;;;;;;;20.51;47.01;98536.63;10598307;28;20040;-56
2023/01/24 13:37:40;;;;;;;4.85;3.75;;;;;;;20.53;46.85;98529.03;10583850;28;20062;-56
2023/01/24 13:42:59;;;;;;;3.90;3.30;;;;;;;20.55;46.81;98526.81;10584479;28;20063;-56
2023/01/24 13:48:45;;;;;;;4.18;3.47;;;;;;;20.57;46.76;98532.75;10583273;28;20052;-55
2023/01/24 13:54:17;;;;;;;4.20;3.20;;;;;;;20.61;46.65;98538.44;10567757;28;20051;-55
2023/01/24 13:59:39;;;;;;;3.25;2.92;;;;;;;20.62;46.71;98543.56;10583704;28;20074;-56
2023/01/24 14:04:59;;;;;;;3.72;3.10;;;;;;;20.64;46.70;98548.69;10568151;28;20101;-55
2023/01/24 14:10:18;;;;;;;4.22;3.10;;;;;;;20.65;46.63;98548.41;10583162;28;20043;-55
2023/01/24 14:15:41;;;;;;;4.72;3.28;;;;;;;20.67;46.77;98548.13;10582320;28;20051;-55
2023/01/24 14:21:01;;;;;;;3.53;2.90;;;;;;;20.68;46.46;98549.72;10582270;28;20047;-56
2023/01/24 14:26:22;;;;;;;3.40;2.80;;;;;;;20.68;46.56;98553.25;10582494;28;20069;-55
2023/01/24 14:31:45;;;;;;;3.55;2.97;;;;;;;20.68;46.47;98561.38;10582477;28;20116;-56
2023/01/24 14:37:12;;;;;;;4.20;2.95;;;;;;;20.68;46.63;98558.66;10566876;27;20043;-55
2023/01/24 14:42:32;;;;;;;5.07;3.35;;;;;;;-146.19;100.00;65364.44;10595547;28;20380;-56
2023/01/24 14:47:52;;;;;;;4.10;3.70;;;;;;;-146.19;100.00;65364.44;10579434;27;20047;-55
2023/01/24 14:53:41;;;;;;;4.97;3.25;;;;;;;-146.19;100.00;65364.44;10601228;27;20047;-55
2023/01/24 14:59:11;;;;;;;4.30;3.50;;;;;;;-146.19;100.00;65364.44;10604401;27;20043;-55
2023/01/24 15:04:30;;;;;;;13.73;5.10;;;;;;;20.66;45.68;98571.69;10592311;27;20038;-54
2023/01/24 15:09:50;;;;;;;17.33;5.72;;;;;;;20.65;45.99;98575.47;10577925;28;20066;-54
2023/01/24 15:15:16;;;;;;;12.55;5.75;;;;;;;20.66;46.38;98585.22;10577215;28;20050;-54
2023/01/24 15:20:36;;;;;;;12.70;5.78;;;;;;;20.66;46.41;98574.41;10575710;28;20059;-53
2023/01/24 15:25:56;;;;;;;10.80;5.28;;;;;;;20.65;46.76;98582.81;10576228;28;20236;-53
2023/01/24 15:31:27;;;;;;;13.27;5.20;;;;;;;20.65;46.70;98577.38;10578731;28;20047;-51
2023/01/24 15:36:57;;;;;;;12.77;4.97;;;;;;;20.65;46.60;98586.31;10592885;28;20047;-54
2023/01/24 15:48:13;;;;;;;11.70;4.80;;;;;;;20.64;47.22;98592.84;10582543;28;20055;-55
2023/01/24 15:53:34;;;;;;;10.23;5.35;;;;;;;20.63;47.02;98585.78;10592704;28;20039;-55
2023/01/24 15:58:53;;;;;;;11.98;5.03;;;;;;;20.63;47.01;98587.69;10579009;28;20048;-54
2023/01/24 16:04:15;;;;;;;11.00;4.57;;;;;;;20.61;46.90;98596.09;10579404;28;20056;-53
2023/01/24 16:09:35;;;;;;;9.63;4.63;;;;;;;20.61;46.98;98595.31;10579863;28;20051;-55
2023/01/24 16:14:55;;;;;;;12.50;4.53;;;;;;;20.59;46.73;98595.59;10581976;28;20059;-54
2023/01/24 16:20:23;;;;;;;6.65;3.92;;;;;;;20.59;46.73;98592.88;10601078;28;20444;-54
2023/01/24 16:25:43;;;;;;;6.88;4.03;;;;;;;20.57;46.46;98586.91;10571227;28;20396;-54
2023/01/24 16:31:03;;;;;;;7.80;4.10;;;;;;;20.56;46.65;98590.69;10586384;28;20056;-54
2023/01/24 16:36:23;;;;;;;6.97;3.88;;;;;;;20.54;46.93;98591.00;10586651;28;20043;-56
2023/01/24 16:41:42;;;;;;;6.13;4.20;;;;;;;20.54;46.85;98590.19;10599221;28;20040;-54
2023/01/24 16:47:01;;;;;;;5.63;3.72;;;;;;;20.52;46.88;98590.50;10591319;28;20048;-56
2023/01/24 16:52:22;;;;;;;7.93;3.70;;;;;;;20.51;47.08;98596.19;10585257;28;20051;-55
2023/01/24 16:57:42;;;;;;;5.68;3.70;;;;;;;20.50;47.39;98597.25;10584721;28;20048;-54
2023/01/24 17:03:02;;;;;;;6.45;3.38;;;;;;;20.48;47.31;98591.34;10585047;28;20518;-54
2023/01/24 17:08:22;;;;;;;5.57;3.20;;;;;;;20.47;47.25;98595.16;10585200;28;20054;-55
2023/01/24 17:13:41;;;;;;;6.78;3.38;;;;;;;20.45;47.72;98598.13;10597743;28;20106;-55
2023/01/24 17:19:03;;;;;;;7.43;3.75;;;;;;;20.43;48.05;98588.69;10598301;28;20051;-54
2023/01/24 17:24:23;;;;;;;4.15;3.08;;;;;;;20.43;48.04;98594.91;10597336;28;20502;-54
2023/01/24 17:29:43;;;;;;;5.97;3.53;;;;;;;20.42;48.22;98593.28;10596659;28;20415;-53
2023/01/24 17:35:04;;;;;;;6.20;3.25;;;;;;;20.41;48.19;98597.09;10584283;28;20055;-56
2023/01/24 17:40:23;;;;;;;5.65;3.22;;;;;;;20.40;48.50;98597.38;10583192;28;20048;-57
2023/01/24 17:45:53;;;;;;;5.78;3.22;;;;;;;20.40;48.30;98591.97;10583686;28;20444;-55
2023/01/24 17:51:14;;;;;;;5.70;3.67;;;;;;;20.39;48.26;98595.78;10583695;28;20102;-55
2023/01/24 17:56:34;;;;;;;4.80;3.17;;;;;;;20.38;48.33;98600.38;10583558;28;20054;-57
2023/01/24 18:01:54;;;;;;;6.38;3.25;;;;;;;20.35;48.29;98596.34;10596009;28;20050;-53
2023/01/24 18:07:13;;;;;;;10.95;4.90;;;;;;;20.32;47.75;98586.06;10583073;28;20055;-55
2023/01/24 18:12:33;;;;;;;9.13;4.50;;;;;;;20.31;47.36;98584.47;10582499;28;20055;-55
2023/01/24 18:17:52;;;;;;;13.10;4.32;;;;;;;20.29;47.58;98589.38;10583003;28;20052;-57
2023/01/24 18:23:11;;;;;;;10.18;4.95;;;;;;;20.29;49.39;98589.38;10581866;28;20534;-55
2023/01/24 18:28:32;;;;;;;6.40;4.20;;;;;;;20.31;49.46;98592.59;10582408;28;20096;-56
2023/01/24 18:33:58;;;;;;;8.75;3.88;;;;;;;20.30;49.77;98590.16;10581537;28;20059;-53
2023/01/24 18:39:17;;;;;;;6.25;3.80;;;;;;;20.27;49.54;98578.00;10594848;28;20100;-54
2023/01/24 18:44:36;;;;;;;4.95;3.60;;;;;;;20.27;50.30;98569.91;10594835;28;20115;-54
2023/01/24 18:49:56;;;;;;;6.38;3.70;;;;;;;20.25;49.96;98577.50;10580969;28;20048;-57
2023/01/24 18:55:16;;;;;;;6.78;3.10;;;;;;;20.25;49.70;98582.09;10581592;28;20051;-56
2023/01/24 19:00:35;;;;;;;7.50;4.22;;;;;;;20.23;48.74;98584.25;10580534;28;20062;-56
2023/01/24 19:05:55;;;;;;;5.55;3.60;;;;;;;20.24;49.18;98585.88;10581413;28;20052;-56
2023/01/24 19:11:15;;;;;;;5.05;3.80;;;;;;;20.24;49.23;98589.41;10580987;28;20052;-55
2023/01/24 19:16:39;;;;;;;4.85;3.30;;;;;;;20.22;49.55;98585.38;10581144;28;20047;-54
2023/01/24 19:27:35;;;;;;;6.05;3.78;;;;;;;20.19;48.61;98589.47;6055656;22;20269;-79
2023/01/24 19:32:55;;;;;;;5.07;3.80;;;;;;;20.17;48.77;98597.06;10399912;28;20052;-75
2023/01/24 19:38:15;;;;;;;6.85;3.72;;;;;;;20.12;48.68;98584.38;10412882;28;20095;-74
2023/01/24 19:43:35;;;;;;;5.43;3.28;;;;;;;20.10;48.52;98591.97;10399022;28;20041;-74
2023/01/24 19:48:55;;;;;;;6.03;3.60;;;;;;;20.08;48.63;98591.44;10414187;28;20044;-75
2023/01/24 19:54:15;;;;;;;5.88;3.42;;;;;;;20.06;48.77;98585.50;10435394;28;20404;-74
2023/01/24 19:59:34;;;;;;;5.45;3.58;;;;;;;20.05;48.93;98593.91;10420111;28;20046;-75
2023/01/24 20:04:54;;;;;;;5.55;3.47;;;;;;;20.03;48.81;98601.50;10419935;28;20045;-75
2023/01/24 20:10:13;;;;;;;5.30;3.63;;;;;;;20.02;48.95;98600.69;10419788;28;20033;-75
2023/01/24 20:15:33;;;;;;;6.80;4.00;;;;;;;20.00;48.74;98604.78;10405788;28;20049;-75
2023/01/24 20:20:52;;;;;;;4.35;3.30;;;;;;;19.98;48.79;98606.97;10419173;28;20095;-75
2023/01/24 20:26:14;;;;;;;5.88;3.47;;;;;;;19.95;48.66;98603.72;10416657;28;20042;-75
2023/01/24 20:31:33;;;;;;;5.90;3.50;;;;;;;19.94;48.75;98599.41;10418935;28;20064;-76
2023/01/24 20:36:53;;;;;;;6.38;3.55;;;;;;;19.94;48.91;98601.31;10404882;28;20041;-75
2023/01/24 20:42:13;;;;;;;4.70;3.60;;;;;;;19.91;48.91;98605.38;10433326;28;20041;-75
2023/01/24 20:47:35;;;;;;;5.63;3.65;;;;;;;19.89;48.69;98601.34;10433300;28;20037;-75
2023/01/24 20:52:55;;;;;;;6.13;3.53;;;;;;;19.88;48.53;98605.94;10432955;28;20447;-76
2023/01/24 20:58:14;;;;;;;6.05;3.33;;;;;;;19.86;48.56;98591.09;10417908;28;20053;-75
2023/01/24 21:03:34;;;;;;;5.18;3.75;;;;;;;19.83;48.68;98592.44;10402767;28;20053;-75
2023/01/24 21:08:55;;;;;;;5.72;3.60;;;;;;;19.83;48.66;98586.25;10432133;28;20045;-75
2023/01/24 21:14:15;;;;;;;4.28;3.53;;;;;;;19.81;48.80;98580.31;10417685;28;20111;-75
2023/01/24 21:19:41;;;;;;;4.38;3.60;;;;;;;19.79;48.86;98588.69;10403973;28;20061;-75
2023/01/24 21:25:01;;;;;;;7.05;3.53;;;;;;;19.77;48.92;98587.38;10431796;28;20045;-75
2023/01/24 21:30:20;;;;;;;6.07;3.67;;;;;;;19.76;48.94;98591.97;10418015;28;20454;-75
2023/01/24 21:35:40;;;;;;;5.10;3.60;;;;;;;19.74;48.93;98589.56;10416387;28;20045;-75
2023/01/24 21:46:40;;;;;;;6.50;3.78;;;;;;;19.70;49.12;98566.84;10418403;28;20507;-75
2023/01/24 21:52:00;;;;;;;4.90;3.38;;;;;;;19.70;49.13;98590.38;10430685;28;20485;-75
2023/01/24 22:03:24;;;;;;;4.47;3.47;;;;;;;19.66;48.94;98584.72;10418047;28;20045;-75
2023/01/24 22:08:38;;;;;;;4.50;3.55;;;;;;;19.64;49.13;98578.78;10416547;28;20472;-75
2023/01/24 22:13:57;;;;;;;5.32;3.75;;;;;;;19.63;49.01;98577.16;10415149;28;20408;-75
2023/01/24 22:19:19;;;;;;;5.13;3.53;;;;;;;19.61;49.07;98567.72;10414826;28;20053;-75
2023/01/24 22:24:42;;;;;;;5.90;3.92;;;;;;;19.59;49.05;98565.28;10400388;28;20049;-75
2023/01/24 22:30:02;;;;;;;5.47;3.75;;;;;;;19.59;49.12;98561.78;10400262;28;20401;-75
2023/01/24 22:35:23;;;;;;;4.43;3.88;;;;;;;19.56;48.83;98549.63;10386479;28;20052;-75
2023/01/24 22:40:43;;;;;;;4.40;3.67;;;;;;;19.55;48.97;98548.03;10439297;28;20036;-75
2023/01/24 22:46:03;;;;;;;4.55;3.60;;;;;;;19.53;48.90;98545.59;10468620;28;20041;-75
2023/01/24 22:51:22;;;;;;;4.28;3.63;;;;;;;19.51;48.97;98536.97;10468422;28;20104;-75
2023/01/24 22:56:42;;;;;;;4.90;3.53;;;;;;;19.51;48.85;98536.16;10454496;28;20044;-75
2023/01/24 23:02:01;;;;;;;5.63;3.58;;;;;;;19.49;48.82;98522.91;10454350;28;20037;-75
2023/01/24 23:07:22;;;;;;;3.65;3.20;;;;;;;19.47;48.94;98524.31;10454689;28;20403;-76
2023/01/24 23:21:26;;;;;;;4.32;3.65;;;;;;;19.43;48.92;98517.84;10468944;28;20053;-75
2023/01/24 23:24:02;;;;;;;5.25;3.70;;;;;;;19.42;48.72;98521.63;10470144;28;20094;-75
2023/01/24 23:29:29;;;;;;;4.10;3.30;;;;;;;19.41;48.72;98520.03;10466556;28;20435;-75
2023/01/24 23:34:53;;;;;;;4.10;3.47;;;;;;;19.38;48.85;98512.47;10476610;28;20052;-75
2023/01/24 23:40:14;;;;;;;5.50;3.78;;;;;;;19.37;48.88;98511.66;10476147;28;20049;-75
2023/01/24 23:45:34;;;;;;;4.20;3.63;;;;;;;19.35;48.95;98503.84;10461981;28;20048;-75
2023/01/24 23:50:55;;;;;;;4.20;3.70;;;;;;;19.33;48.79;98497.09;10475715;28;20052;-75
2023/01/24 23:56:14;;;;;;;4.32;3.67;;;;;;;19.31;48.73;98497.38;10475581;28;20059;-75
